Destinations Gothenburg-Landvetter Airport

Gothenburg-Landvetter Airport (ESGG / GOT)

Flights to Gothenburg-Landvetter Airport

Flight number From ETE Dispatch
SPY-2296 EGFF Cardiff International Airport 02:15
SPY-312 EHGG Groningen Airport Eelde 01:35

Flights from Gothenburg-Landvetter Airport

Flight number To ETE Dispatch
SPY-2297 EGFF Cardiff International Airport 02:15
SPY-313 EHGG Groningen Airport Eelde 01:40
About

Gothenburg-Landvetter Airport facts

Gothenburg-Landvetter Airport is located in Gothenborg at an elevation of 154.2 meters or 506 feet.

Currently, Speedy Airlines serves 4 flights to and from Gothenburg-Landvetter Airport.

Detailed airport info

Route map

Weather

Current weather

METAR

METAR

Metar data retrieved Sunday, 21 July 2024 at 20:25 UTC

ESGG 211950Z 19004KT CAVOK 21/13 Q1010
Wind Temperature
4 kt 21c